createdAt,value
2022-09-16T00:00:10.983Z,99.90
2022-09-16T00:02:45.022Z,99.90
2022-09-16T00:05:18.221Z,99.90
2022-09-16T00:07:51.856Z,99.90
2022-09-16T00:10:27.818Z,99.90
2022-09-16T00:12:57.903Z,99.90
2022-09-16T00:15:28.175Z,99.90
2022-09-16T00:17:58.292Z,99.90
2022-09-16T00:20:28.617Z,99.90
2022-09-16T00:22:58.744Z,99.90
2022-09-16T00:25:31.501Z,99.90
2022-09-16T00:28:04.494Z,99.90
2022-09-16T00:30:34.624Z,99.90
2022-09-16T00:33:04.783Z,99.90
2022-09-16T00:35:34.979Z,99.90
2022-09-16T00:38:05.090Z,99.90
2022-09-16T00:40:38.156Z,99.90
2022-09-16T00:43:09.257Z,99.90
2022-09-16T00:45:41.800Z,99.90
2022-09-16T00:48:18.177Z,99.90
2022-09-16T00:50:53.294Z,99.90
2022-09-16T00:53:30.607Z,99.90
2022-09-16T00:56:09.601Z,99.90
2022-09-16T00:58:49.314Z,99.90
2022-09-16T01:01:19.686Z,99.90
2022-09-16T01:03:55.313Z,99.90
2022-09-16T01:06:29.152Z,99.90
2022-09-16T01:09:00.491Z,99.90
2022-09-16T01:11:33.235Z,99.90
2022-09-16T01:14:21.179Z,99.90
2022-09-16T01:17:02.752Z,99.90
2022-09-16T01:20:06.005Z,99.90
2022-09-16T01:22:57.240Z,99.90
2022-09-16T01:25:51.266Z,99.90
2022-09-16T01:29:06.199Z,99.90
2022-09-16T01:31:49.296Z,99.90
2022-09-16T01:34:29.800Z,99.90
2022-09-16T01:37:09.284Z,99.90
2022-09-16T01:39:51.141Z,99.90
2022-09-16T01:42:36.536Z,99.90
2022-09-16T01:45:18.433Z,99.90
2022-09-16T01:47:59.512Z,99.90
2022-09-16T01:50:35.913Z,99.90
2022-09-16T01:53:19.345Z,99.90
2022-09-16T01:55:57.363Z,99.90
2022-09-16T01:58:37.863Z,99.90
2022-09-16T02:01:17.304Z,99.90
2022-09-16T02:04:02.878Z,99.90
2022-09-16T02:06:35.431Z,99.90
2022-09-16T02:09:15.280Z,99.90
2022-09-16T02:11:50.668Z,99.90
2022-09-16T02:14:25.766Z,99.90
2022-09-16T02:17:01.974Z,99.90
2022-09-16T02:19:41.912Z,99.90
2022-09-16T02:22:18.644Z,99.90
2022-09-16T02:24:51.293Z,99.90
2022-09-16T02:27:26.069Z,99.90
2022-09-16T02:30:10.265Z,99.90
2022-09-16T02:32:46.710Z,99.90
2022-09-16T02:35:23.760Z,99.90
2022-09-16T02:38:00.199Z,99.90
2022-09-16T02:40:37.501Z,99.90
2022-09-16T02:43:07.820Z,99.90
2022-09-16T02:45:53.785Z,99.90
2022-09-16T02:48:40.972Z,99.90
2022-09-16T02:51:28.995Z,99.90
2022-09-16T02:54:06.084Z,99.90
2022-09-16T02:56:40.446Z,99.90
2022-09-16T02:59:15.456Z,99.90
2022-09-16T03:01:48.640Z,99.90
2022-09-16T03:04:22.812Z,99.90
2022-09-16T03:06:55.506Z,99.90
2022-09-16T03:09:29.895Z,99.90
2022-09-16T03:12:20.459Z,99.90
2022-09-16T03:15:11.240Z,99.90
2022-09-16T03:18:10.043Z,99.90
2022-09-16T03:20:52.923Z,99.90
2022-09-16T03:23:44.267Z,99.90
2022-09-16T03:26:25.348Z,99.90
2022-09-16T03:29:15.428Z,99.90
2022-09-16T03:31:57.103Z,99.90
2022-09-16T03:34:34.847Z,99.90
2022-09-16T03:37:20.178Z,99.90
2022-09-16T03:39:57.755Z,99.90
2022-09-16T03:42:28.430Z,99.90
2022-09-16T03:44:58.479Z,99.90
2022-09-16T03:47:28.698Z,99.90
2022-09-16T03:49:58.738Z,99.90
2022-09-16T03:52:28.961Z,99.90
2022-09-16T03:55:01.615Z,99.90
2022-09-16T03:57:34.987Z,99.90
2022-09-16T04:00:06.528Z,99.90
2022-09-16T04:02:36.797Z,99.90
2022-09-16T04:05:08.227Z,99.90
2022-09-16T04:07:38.642Z,99.90
2022-09-16T04:10:13.974Z,99.90
2022-09-16T04:12:50.281Z,99.90
2022-09-16T04:15:23.388Z,99.90
2022-09-16T04:17:53.497Z,99.90
2022-09-16T04:20:23.911Z,99.90
2022-09-16T04:22:57.560Z,99.90
2022-09-16T04:25:30.306Z,99.90
2022-09-16T04:28:04.887Z,99.90
2022-09-16T04:30:35.195Z,99.90
2022-09-16T04:33:05.513Z,99.90
2022-09-16T04:35:35.720Z,99.90
2022-09-16T04:38:06.087Z,99.90
2022-09-16T04:40:40.217Z,99.90
2022-09-16T04:43:11.115Z,99.90
2022-09-16T04:45:47.813Z,99.90
2022-09-16T04:48:19.968Z,99.90
2022-09-16T04:50:52.554Z,99.90
2022-09-16T04:53:23.295Z,99.90
2022-09-16T04:55:58.602Z,99.90
2022-09-16T04:58:28.829Z,99.90
2022-09-16T05:01:12.895Z,99.90
2022-09-16T05:03:44.461Z,99.90
2022-09-16T05:06:20.683Z,99.90
2022-09-16T05:08:52.722Z,99.90
2022-09-16T05:11:30.751Z,99.90
2022-09-16T05:14:03.100Z,99.90
2022-09-16T05:16:34.331Z,99.90
2022-09-16T05:19:07.395Z,99.90
2022-09-16T05:21:42.674Z,99.90
2022-09-16T05:24:16.855Z,99.90
2022-09-16T05:26:49.564Z,99.90
2022-09-16T05:29:20.450Z,99.90
2022-09-16T05:31:51.013Z,99.90
2022-09-16T05:34:28.542Z,99.90
2022-09-16T05:37:00.563Z,99.90
2022-09-16T05:39:35.769Z,99.90
2022-09-16T05:42:13.224Z,99.90
2022-09-16T05:44:44.398Z,99.90
2022-09-16T05:47:14.789Z,99.90
2022-09-16T05:49:44.905Z,99.90
2022-09-16T05:52:20.920Z,99.90
2022-09-16T05:54:51.672Z,99.90
2022-09-16T05:57:24.420Z,99.90
2022-09-16T05:59:54.563Z,99.90
2022-09-16T06:02:30.721Z,99.90
2022-09-16T06:05:02.705Z,99.90
2022-09-16T06:07:35.415Z,99.90
2022-09-16T06:10:05.501Z,99.90
2022-09-16T06:12:40.510Z,99.90
2022-09-16T06:15:20.432Z,99.90
2022-09-16T06:17:50.907Z,99.90
2022-09-16T06:20:21.040Z,99.90
2022-09-16T06:22:58.941Z,99.90
2022-09-16T06:25:32.469Z,99.90
2022-09-16T06:28:09.357Z,99.90
2022-09-16T06:30:40.024Z,99.90
2022-09-16T06:33:12.862Z,99.90
2022-09-16T06:35:45.533Z,99.90
2022-09-16T06:38:15.604Z,99.90
2022-09-16T06:40:45.622Z,99.90
2022-09-16T06:43:18.278Z,99.90
2022-09-16T06:45:48.367Z,99.90
2022-09-16T06:48:20.987Z,99.90
2022-09-16T06:50:51.055Z,99.90
2022-09-16T06:53:26.341Z,99.90
2022-09-16T06:55:59.212Z,99.90
2022-09-16T06:58:35.419Z,99.90
2022-09-16T07:01:09.018Z,99.90
2022-09-16T07:03:43.733Z,99.90
2022-09-16T07:06:18.926Z,99.90
2022-09-16T07:08:50.210Z,99.90
2022-09-16T07:11:25.248Z,99.90
2022-09-16T07:14:00.953Z,99.90
2022-09-16T07:16:31.805Z,99.90
2022-09-16T07:19:02.919Z,99.90
2022-09-16T07:21:36.658Z,99.90
2022-09-16T07:24:13.049Z,99.90
2022-09-16T07:26:45.299Z,70.30
2022-09-16T07:29:20.930Z,1.00
2022-09-16T07:31:51.924Z,1.00
2022-09-16T07:34:22.538Z,1.00
2022-09-16T07:36:53.413Z,1.00
2022-09-16T07:39:25.786Z,1.00
2022-09-16T07:41:55.910Z,14.10
2022-09-16T07:44:29.646Z,21.30
2022-09-16T07:47:05.818Z,34.90
2022-09-16T07:49:36.650Z,63.00
2022-09-16T07:52:16.518Z,99.90
2022-09-16T07:54:52.000Z,99.90
2022-09-16T07:57:22.662Z,99.90
2022-09-16T07:59:59.728Z,99.90
2022-09-16T08:02:30.109Z,99.90
2022-09-16T08:05:00.301Z,99.90
2022-09-16T08:07:30.372Z,99.90
2022-09-16T08:10:00.571Z,99.90
2022-09-16T08:12:35.456Z,99.90
2022-09-16T08:15:10.423Z,99.90
2022-09-16T08:17:40.630Z,98.70
2022-09-16T08:20:11.872Z,99.90
2022-09-16T08:22:42.172Z,99.90
2022-09-16T08:25:12.835Z,99.90
2022-09-16T08:27:42.942Z,99.90
2022-09-16T08:30:19.019Z,99.90
2022-09-16T08:32:49.180Z,99.90
2022-09-16T08:35:25.657Z,99.90
2022-09-16T08:37:58.864Z,99.90
2022-09-16T08:40:32.538Z,99.90
2022-09-16T08:43:26.087Z,99.90
2022-09-16T08:46:10.173Z,99.90
2022-09-16T08:48:56.356Z,99.90
2022-09-16T08:51:28.729Z,99.90
2022-09-16T08:54:05.573Z,94.50
2022-09-16T08:56:40.407Z,90.90
2022-09-16T08:59:22.807Z,88.10
2022-09-16T09:02:11.222Z,90.20
2022-09-16T09:04:41.576Z,76.80
2022-09-16T09:07:26.440Z,98.00
2022-09-16T09:10:16.193Z,86.60
2022-09-16T09:13:03.547Z,53.10
2022-09-16T09:15:46.884Z,12.80
2022-09-16T09:18:40.030Z,1.00
2022-09-16T09:21:29.254Z,1.00
2022-09-16T09:24:48.374Z,99.90
2022-09-16T09:27:25.840Z,99.90
2022-09-16T09:30:14.931Z,99.90
2022-09-16T09:33:17.571Z,1.00
2022-09-16T09:36:41.447Z,99.90
2022-09-16T09:39:45.898Z,1.00
2022-09-16T09:42:39.202Z,25.90
2022-09-16T09:45:33.133Z,1.00
2022-09-16T09:48:17.869Z,1.00
2022-09-16T09:50:51.093Z,1.00
2022-09-16T09:53:38.452Z,1.00
2022-09-16T09:56:20.427Z,1.00
2022-09-16T09:59:17.351Z,99.90
2022-09-16T10:01:56.141Z,1.00
2022-09-16T10:04:27.224Z,99.90
2022-09-16T10:07:00.991Z,99.90
2022-09-16T10:09:34.196Z,1.00
2022-09-16T10:12:05.453Z,10.10
2022-09-16T10:14:39.479Z,85.80
2022-09-16T10:17:20.042Z,1.00
2022-09-16T10:19:57.028Z,99.90
2022-09-16T10:22:31.268Z,99.90
2022-09-16T10:25:08.325Z,1.00
2022-09-16T10:27:40.889Z,1.00
2022-09-16T10:30:19.042Z,1.00
2022-09-16T10:32:54.745Z,1.00
2022-09-16T10:35:29.094Z,1.00
2022-09-16T10:38:02.447Z,1.00
2022-09-16T10:40:42.750Z,1.00
2022-09-16T10:43:19.311Z,99.90
2022-09-16T10:45:53.354Z,1.00
2022-09-16T10:48:27.412Z,99.90
2022-09-16T10:51:00.485Z,99.90
2022-09-16T10:53:39.595Z,99.90
2022-09-16T10:56:25.022Z,1.00
2022-09-16T10:59:07.290Z,1.00
2022-09-16T11:01:49.169Z,1.00
2022-09-16T11:04:49.394Z,1.00
2022-09-16T11:07:35.699Z,1.00
2022-09-16T11:10:26.189Z,1.00
2022-09-16T11:13:34.805Z,1.00
2022-09-16T11:16:50.122Z,1.00
2022-09-16T11:19:35.661Z,1.00
2022-09-16T11:22:25.202Z,1.00
2022-09-16T11:25:29.440Z,1.00
2022-09-16T11:28:21.785Z,1.00
2022-09-16T11:31:09.553Z,99.90
2022-09-16T11:33:49.431Z,1.00
2022-09-16T11:36:40.841Z,64.30
2022-09-16T11:39:47.253Z,99.90
2022-09-16T11:42:30.377Z,1.00
2022-09-16T11:45:25.077Z,1.00
2022-09-16T11:48:26.973Z,1.00
2022-09-16T11:51:12.508Z,1.00
2022-09-16T11:54:05.871Z,1.00
2022-09-16T11:56:48.123Z,11.90
2022-09-16T11:59:29.562Z,99.90
2022-09-16T12:02:27.767Z,1.00
2022-09-16T12:05:09.934Z,99.90
2022-09-16T12:07:50.423Z,99.90
2022-09-16T12:10:26.611Z,99.90
2022-09-16T12:13:11.199Z,1.00
2022-09-16T12:15:49.574Z,99.90
2022-09-16T12:18:35.223Z,1.00
2022-09-16T12:21:15.811Z,1.00
2022-09-16T12:23:57.547Z,99.90
2022-09-16T12:26:34.997Z,99.90
2022-09-16T12:29:14.455Z,99.90
2022-09-16T12:31:54.047Z,99.90
2022-09-16T12:34:39.694Z,99.90
2022-09-16T12:37:29.911Z,99.90
2022-09-16T12:40:02.486Z,99.90
2022-09-16T12:43:10.815Z,99.90
2022-09-16T12:46:37.770Z,99.90
2022-09-16T12:50:05.339Z,99.90
2022-09-16T12:53:36.259Z,99.90
2022-09-16T12:56:24.263Z,99.90
2022-09-16T12:59:32.479Z,99.90
2022-09-16T13:02:15.545Z,99.90
2022-09-16T13:04:51.391Z,99.90
2022-09-16T13:07:32.623Z,99.90
2022-09-16T13:10:07.400Z,99.90
2022-09-16T13:12:43.920Z,99.90
2022-09-16T13:15:30.319Z,99.90
2022-09-16T13:18:26.318Z,99.90
2022-09-16T13:21:02.796Z,99.90
2022-09-16T13:23:45.916Z,99.90
2022-09-16T13:26:16.629Z,99.90
2022-09-16T13:28:49.555Z,99.90
2022-09-16T13:31:25.954Z,99.90
2022-09-16T13:34:19.146Z,99.90
2022-09-16T13:36:49.639Z,99.90
2022-09-16T13:39:34.537Z,99.90
2022-09-16T13:42:21.900Z,99.90
2022-09-16T13:44:56.029Z,99.90
2022-09-16T13:47:40.278Z,99.90
2022-09-16T13:50:21.307Z,99.90
2022-09-16T13:52:53.988Z,99.90
2022-09-16T13:55:29.631Z,99.90
2022-09-16T13:58:08.829Z,99.90
2022-09-16T14:00:52.297Z,99.90
2022-09-16T14:03:47.835Z,99.90
2022-09-16T14:06:57.803Z,99.90
2022-09-16T14:09:54.126Z,99.90
2022-09-16T14:12:45.951Z,99.90
2022-09-16T14:15:18.384Z,99.90
2022-09-16T14:17:58.723Z,99.90
2022-09-16T14:20:34.655Z,99.90
2022-09-16T14:23:14.933Z,99.90
2022-09-16T14:25:45.054Z,99.90
2022-09-16T14:28:26.096Z,99.90
2022-09-16T14:30:59.800Z,99.90
2022-09-16T14:33:35.381Z,99.90
2022-09-16T14:36:17.626Z,99.90
2022-09-16T14:38:52.140Z,99.90
2022-09-16T14:41:31.936Z,99.90
2022-09-16T14:44:27.711Z,99.90
2022-09-16T14:47:09.319Z,99.90
2022-09-16T14:49:43.590Z,99.90
2022-09-16T14:52:24.074Z,99.90
2022-09-16T14:54:54.491Z,99.90
2022-09-16T14:57:30.513Z,99.90
2022-09-16T15:00:11.940Z,99.90
2022-09-16T15:02:50.027Z,99.90
2022-09-16T15:05:28.751Z,99.90
2022-09-16T15:08:14.663Z,99.90
2022-09-16T15:10:53.292Z,84.30
2022-09-16T15:13:30.941Z,80.70
2022-09-16T15:16:15.957Z,97.70
2022-09-16T15:18:55.234Z,99.90
2022-09-16T15:21:29.779Z,99.90
2022-09-16T15:24:05.199Z,99.90
2022-09-16T15:26:50.879Z,99.90
2022-09-16T15:29:34.218Z,99.90
2022-09-16T15:32:24.071Z,99.90
2022-09-16T15:35:32.187Z,99.90
2022-09-16T15:38:22.428Z,99.90
2022-09-16T15:41:06.261Z,99.90
2022-09-16T15:43:43.819Z,99.90
2022-09-16T15:46:22.091Z,99.90
2022-09-16T15:49:04.642Z,99.90
2022-09-16T15:51:42.637Z,99.90
2022-09-16T15:54:24.230Z,99.90
2022-09-16T15:57:02.584Z,99.90
2022-09-16T15:59:39.970Z,99.90
2022-09-16T16:02:26.536Z,99.90
2022-09-16T16:05:12.827Z,99.90
2022-09-16T16:07:47.349Z,99.90
2022-09-16T16:10:30.249Z,99.90
2022-09-16T16:13:04.143Z,99.90
2022-09-16T16:15:41.192Z,99.90
2022-09-16T16:18:15.571Z,99.90
2022-09-16T16:20:48.238Z,99.90
2022-09-16T16:23:18.451Z,99.90
2022-09-16T16:25:51.659Z,99.90
2022-09-16T16:28:21.777Z,99.90
2022-09-16T16:30:51.937Z,99.90
2022-09-16T16:33:22.106Z,99.90
2022-09-16T16:35:54.791Z,99.90
2022-09-16T16:38:27.596Z,99.90
2022-09-16T16:40:57.683Z,99.90
2022-09-16T16:43:32.422Z,99.90
2022-09-16T16:46:09.064Z,99.90
2022-09-16T16:48:39.325Z,99.90
2022-09-16T16:51:16.163Z,99.90
2022-09-16T16:53:50.814Z,99.90
2022-09-16T16:56:28.704Z,99.90
2022-09-16T16:59:02.319Z,99.90
2022-09-16T17:01:47.964Z,99.90
2022-09-16T17:04:21.709Z,99.90
2022-09-16T17:07:21.518Z,99.90
2022-09-16T17:09:53.294Z,99.90
2022-09-16T17:12:23.428Z,99.90
2022-09-16T17:14:53.505Z,99.90
2022-09-16T17:17:26.490Z,99.90
2022-09-16T17:20:04.125Z,99.90
2022-09-16T17:22:46.295Z,99.90
2022-09-16T17:25:21.723Z,99.90
2022-09-16T17:27:54.823Z,99.90
2022-09-16T17:30:24.868Z,99.90
2022-09-16T17:32:54.958Z,99.90
2022-09-16T17:35:25.035Z,99.90
2022-09-16T17:38:04.844Z,99.90
2022-09-16T17:40:37.280Z,99.90
2022-09-16T17:43:07.673Z,99.90
2022-09-16T17:45:38.264Z,99.90
2022-09-16T17:48:11.087Z,99.90
2022-09-16T17:50:41.484Z,99.90
2022-09-16T17:53:16.488Z,99.90
2022-09-16T17:55:46.982Z,99.90
2022-09-16T17:58:17.753Z,99.90
2022-09-16T18:00:53.338Z,99.90
2022-09-16T18:03:29.156Z,99.90
2022-09-16T18:06:08.241Z,99.90
2022-09-16T18:08:42.150Z,99.90
2022-09-16T18:11:15.029Z,99.90
2022-09-16T18:13:46.600Z,99.90
2022-09-16T18:16:19.959Z,99.90
2022-09-16T18:18:54.984Z,99.90
2022-09-16T18:21:26.915Z,99.90
2022-09-16T18:24:02.180Z,99.90
2022-09-16T18:26:33.976Z,99.90
2022-09-16T18:29:09.987Z,99.90
2022-09-16T18:31:42.224Z,99.90
2022-09-16T18:34:13.257Z,99.90
2022-09-16T18:36:44.339Z,99.90
2022-09-16T18:39:19.593Z,99.90
2022-09-16T18:41:50.209Z,99.90
2022-09-16T18:44:23.722Z,99.90
2022-09-16T18:46:54.699Z,99.90
2022-09-16T18:49:26.401Z,99.90
2022-09-16T18:51:57.112Z,99.90
2022-09-16T18:54:33.165Z,99.90
2022-09-16T18:57:04.647Z,99.90
2022-09-16T18:59:37.086Z,99.90
2022-09-16T19:02:10.260Z,99.90
2022-09-16T19:04:50.941Z,99.90
2022-09-16T19:07:28.189Z,99.90
2022-09-16T19:10:01.275Z,99.90
2022-09-16T19:12:38.962Z,99.90
2022-09-16T19:15:11.769Z,99.90
2022-09-16T19:17:45.073Z,99.90
2022-09-16T19:20:15.279Z,99.90
2022-09-16T19:22:45.447Z,99.90
2022-09-16T19:25:20.798Z,99.90
2022-09-16T19:27:50.922Z,99.90
2022-09-16T19:30:22.332Z,99.90
2022-09-16T19:32:54.392Z,99.90
2022-09-16T19:35:28.801Z,99.90
2022-09-16T19:37:59.235Z,99.90
2022-09-16T19:40:33.394Z,99.90
2022-09-16T19:43:03.843Z,99.90
2022-09-16T19:45:34.193Z,99.90
2022-09-16T19:48:10.112Z,99.90
2022-09-16T19:50:44.405Z,99.90
2022-09-16T19:53:16.009Z,99.90
2022-09-16T19:55:51.924Z,99.90
2022-09-16T19:58:25.248Z,99.90
2022-09-16T20:01:02.203Z,99.90
2022-09-16T20:03:34.129Z,99.90
2022-09-16T20:06:10.928Z,99.90
2022-09-16T20:08:44.135Z,99.90
2022-09-16T20:11:28.893Z,99.90
2022-09-16T20:14:14.294Z,99.90
2022-09-16T20:16:45.237Z,99.90
2022-09-16T20:19:18.940Z,99.90
2022-09-16T20:21:54.021Z,99.90
2022-09-16T20:24:26.501Z,99.90
2022-09-16T20:27:02.287Z,99.90
2022-09-16T20:29:32.478Z,99.90
2022-09-16T20:32:02.733Z,99.90
2022-09-16T20:34:33.123Z,99.90
2022-09-16T20:37:05.592Z,99.90
2022-09-16T20:39:35.807Z,99.90
2022-09-16T20:42:09.137Z,99.90
2022-09-16T20:44:39.357Z,99.90
2022-09-16T20:47:09.618Z,99.90
2022-09-16T20:49:39.807Z,99.90
2022-09-16T20:52:09.956Z,99.90
2022-09-16T20:54:40.123Z,99.90
2022-09-16T20:57:12.836Z,99.90
2022-09-16T20:59:43.122Z,99.90
2022-09-16T21:02:13.288Z,99.90
2022-09-16T21:04:43.525Z,99.90
2022-09-16T21:07:13.744Z,99.90
2022-09-16T21:09:44.129Z,99.90
2022-09-16T21:12:20.039Z,99.90
2022-09-16T21:14:50.532Z,99.90
2022-09-16T21:17:22.642Z,99.90
2022-09-16T21:19:52.985Z,99.90
2022-09-16T21:22:23.713Z,99.90
2022-09-16T21:24:58.263Z,99.90
2022-09-16T21:27:34.258Z,99.90
2022-09-16T21:30:04.518Z,99.90
2022-09-16T21:32:34.925Z,99.90
2022-09-16T21:35:07.495Z,99.90
2022-09-16T21:37:37.779Z,99.90
2022-09-16T21:40:10.326Z,99.90
2022-09-16T21:42:43.140Z,99.90
2022-09-16T21:45:15.232Z,99.90
2022-09-16T21:47:47.274Z,99.90
2022-09-16T21:50:17.645Z,99.90
2022-09-16T21:52:47.965Z,99.90
2022-09-16T21:55:18.532Z,99.90
2022-09-16T21:57:52.998Z,99.90
2022-09-16T22:00:23.387Z,99.90
2022-09-16T22:02:53.550Z,99.90
2022-09-16T22:05:23.675Z,99.90
2022-09-16T22:07:53.843Z,99.90
2022-09-16T22:10:24.151Z,99.90
2022-09-16T22:13:00.143Z,99.90
2022-09-16T22:15:30.364Z,99.90
2022-09-16T22:18:02.302Z,99.90
2022-09-16T22:20:32.369Z,99.90
2022-09-16T22:23:02.395Z,99.90
2022-09-16T22:25:32.472Z,99.90
2022-09-16T22:28:10.303Z,99.90
2022-09-16T22:30:40.572Z,99.90
2022-09-16T22:33:10.664Z,99.90
2022-09-16T22:35:40.800Z,99.90
2022-09-16T22:38:13.244Z,99.90
2022-09-16T22:40:46.372Z,99.90
2022-09-16T22:43:21.390Z,99.90
2022-09-16T22:45:51.489Z,99.90
2022-09-16T22:48:21.544Z,99.90
2022-09-16T22:50:58.745Z,99.90
2022-09-16T22:53:36.377Z,99.90
2022-09-16T22:56:09.439Z,99.90
2022-09-16T22:58:44.865Z,99.90
2022-09-16T23:01:20.949Z,99.90
2022-09-16T23:03:56.438Z,99.90
2022-09-16T23:06:29.628Z,99.90
2022-09-16T23:09:00.713Z,99.90
2022-09-16T23:11:34.344Z,99.90
2022-09-16T23:14:10.819Z,99.90
2022-09-16T23:16:41.169Z,99.90
2022-09-16T23:19:14.565Z,99.90
2022-09-16T23:21:45.085Z,99.90
2022-09-16T23:24:22.151Z,99.90
2022-09-16T23:26:52.591Z,99.90
2022-09-16T23:29:27.626Z,99.90
2022-09-16T23:31:57.829Z,99.90
2022-09-16T23:34:27.893Z,99.90
2022-09-16T23:37:01.366Z,99.90
2022-09-16T23:39:31.439Z,99.90
2022-09-16T23:42:01.555Z,99.90
2022-09-16T23:44:39.724Z,99.90
2022-09-16T23:47:15.727Z,99.90
2022-09-16T23:49:46.021Z,99.90
2022-09-16T23:52:16.376Z,99.90
2022-09-16T23:54:49.189Z,99.90
2022-09-16T23:57:19.300Z,99.90
2022-09-16T23:59:51.885Z,99.90
